Time;durP1;ratioP1;P1;durP2;ratioP2;P2;SDS_P1;SDS_P2;PMS_P1;PMS_P2;Temp;Humidity;BMP_temperature;BMP_pressure;BME280_temperature;BME280_humidity;BME280_pressure;Samples;Min_cycle;Max_cycle;Signal;HPM_P1;HPM_P2
2021/09/18 00:00:36;;;;;;;4.00;3.60;;;12.50;99.90;;;;;;5072042;28;20204;-64
2021/09/18 00:03:03;;;;;;;4.33;3.93;;;12.50;99.90;;;;;;5071764;28;20208;-63
2021/09/18 00:05:30;;;;;;;6.27;4.00;;;12.50;99.90;;;;;;5071545;28;20341;-65
2021/09/18 00:07:58;;;;;;;5.93;3.70;;;12.50;99.90;;;;;;5071463;28;20225;-63
2021/09/18 00:10:25;;;;;;;4.17;3.73;;;12.50;99.90;;;;;;5071493;28;20545;-64
2021/09/18 00:12:52;;;;;;;5.73;3.93;;;12.50;99.90;;;;;;5071296;28;20231;-64
2021/09/18 00:15:18;;;;;;;19.50;14.50;;;12.50;99.90;;;;;;5071527;28;20205;-65
2021/09/18 00:17:45;;;;;;;5.90;5.30;;;12.50;99.90;;;;;;5071191;28;20233;-66
2021/09/18 00:20:12;;;;;;;5.33;4.60;;;12.60;99.90;;;;;;5071402;28;20204;-64
2021/09/18 00:22:39;;;;;;;5.80;5.20;;;12.60;99.90;;;;;;5071417;28;20235;-64
2021/09/18 00:25:08;;;;;;;6.10;4.37;;;12.60;99.90;;;;;;5070995;28;20208;-64
2021/09/18 00:27:35;;;;;;;4.90;4.40;;;12.70;99.90;;;;;;5070921;28;20256;-64
2021/09/18 00:30:02;;;;;;;5.37;4.20;;;12.70;99.90;;;;;;5071270;28;20221;-64
2021/09/18 00:32:28;;;;;;;7.47;4.50;;;12.70;99.90;;;;;;5071204;28;20726;-64
2021/09/18 00:34:55;;;;;;;5.90;3.97;;;12.70;99.90;;;;;;5071006;28;20643;-64
2021/09/18 00:37:22;;;;;;;5.20;4.30;;;12.70;99.90;;;;;;5071195;28;20232;-65
2021/09/18 00:39:48;;;;;;;6.43;4.67;;;12.70;99.90;;;;;;5071228;28;20665;-64
2021/09/18 00:42:16;;;;;;;4.50;4.10;;;12.70;99.90;;;;;;5071062;28;20266;-64
2021/09/18 00:44:43;;;;;;;5.17;4.30;;;12.70;99.90;;;;;;5071025;28;20207;-64
2021/09/18 00:47:10;;;;;;;4.93;4.27;;;12.70;99.90;;;;;;5071043;28;20282;-66
2021/09/18 00:49:37;;;;;;;6.90;4.37;;;12.70;99.90;;;;;;5070814;28;20701;-64
2021/09/18 00:52:04;;;;;;;7.00;4.43;;;12.70;99.90;;;;;;5070881;28;20589;-64
2021/09/18 00:54:30;;;;;;;4.87;4.30;;;12.70;99.90;;;;;;5070648;28;20217;-65
2021/09/18 00:57:00;;;;;;;7.60;4.57;;;12.70;99.90;;;;;;5070664;28;20232;-64
2021/09/18 00:59:28;;;;;;;4.57;4.17;;;12.60;99.90;;;;;;5070861;28;20211;-66
2021/09/18 01:01:55;;;;;;;4.77;4.30;;;12.70;99.90;;;;;;5070732;28;20704;-65
2021/09/18 01:04:22;;;;;;;5.30;4.03;;;12.60;99.90;;;;;;5070767;28;20213;-64
2021/09/18 01:06:49;;;;;;;5.07;4.23;;;12.60;99.90;;;;;;5070789;28;20293;-64
2021/09/18 01:09:17;;;;;;;5.17;4.27;;;12.60;99.90;;;;;;5070615;28;20307;-64
2021/09/18 01:11:44;;;;;;;6.67;4.47;;;12.50;99.90;;;;;;5071369;28;20231;-64
2021/09/18 01:14:11;;;;;;;6.30;4.40;;;12.50;99.90;;;;;;5070845;28;20205;-65
2021/09/18 01:16:39;;;;;;;8.27;4.70;;;12.50;99.90;;;;;;5070779;28;20209;-65
2021/09/18 01:19:06;;;;;;;4.50;4.10;;;12.50;99.90;;;;;;5070519;28;20258;-66
2021/09/18 01:21:32;;;;;;;8.23;4.27;;;12.50;99.90;;;;;;5070607;28;20200;-64
2021/09/18 01:24:01;;;;;;;6.57;4.30;;;12.50;99.90;;;;;;5070368;28;20597;-65
2021/09/18 01:26:33;;;;;;;4.33;3.87;;;12.40;99.90;;;;;;5070748;28;20470;-65
2021/09/18 01:29:00;;;;;;;5.77;4.23;;;12.40;99.90;;;;;;5070775;28;20236;-66
2021/09/18 01:31:27;;;;;;;4.97;4.47;;;12.40;99.90;;;;;;5070341;28;20221;-65
2021/09/18 01:33:55;;;;;;;8.73;5.30;;;12.40;99.90;;;;;;5070430;28;20200;-65
2021/09/18 01:36:22;;;;;;;5.30;4.80;;;12.30;99.90;;;;;;5070490;28;20209;-65
2021/09/18 01:38:49;;;;;;;10.13;4.50;;;12.40;99.90;;;;;;5070539;28;20221;-63
2021/09/18 01:41:17;;;;;;;5.07;4.33;;;12.30;99.90;;;;;;5070848;28;20205;-65
2021/09/18 01:43:44;;;;;;;5.03;4.53;;;12.30;99.90;;;;;;5070447;28;20676;-65
2021/09/18 01:46:11;;;;;;;7.10;5.43;;;12.20;99.90;;;;;;5069927;28;20228;-64
2021/09/18 01:48:38;;;;;;;7.80;6.10;;;12.20;99.90;;;;;;5070131;28;20298;-66
2021/09/18 01:51:10;;;;;;;6.67;5.73;;;12.20;99.90;;;;;;5070481;28;20225;-65
2021/09/18 01:53:36;;;;;;;6.70;4.93;;;12.20;99.90;;;;;;5070396;28;20216;-65
2021/09/18 01:56:03;;;;;;;5.60;5.00;;;12.20;99.90;;;;;;5070283;28;20216;-65
2021/09/18 01:58:31;;;;;;;5.27;4.60;;;12.30;99.90;;;;;;5070109;28;20225;-65
2021/09/18 02:01:00;;;;;;;5.17;4.67;;;12.30;99.90;;;;;;5070191;28;20201;-65
2021/09/18 02:03:27;;;;;;;5.53;4.70;;;12.20;99.90;;;;;;5069972;28;20751;-64
2021/09/18 02:05:54;;;;;;;5.27;4.70;;;12.20;99.90;;;;;;5074152;28;20242;-65
2021/09/18 02:08:22;;;;;;;6.43;4.70;;;12.20;99.90;;;;;;5073689;28;20221;-65
2021/09/18 02:10:50;;;;;;;5.17;4.67;;;12.20;99.90;;;;;;5073718;28;20223;-64
2021/09/18 02:13:17;;;;;;;6.43;5.13;;;12.20;99.90;;;;;;5073843;28;20209;-65
2021/09/18 02:15:45;;;;;;;5.30;4.80;;;12.20;99.90;;;;;;5073495;28;20212;-65
2021/09/18 02:18:13;;;;;;;7.23;4.80;;;12.10;99.90;;;;;;5073324;28;20651;-66
2021/09/18 02:20:41;;;;;;;5.57;5.00;;;12.10;99.90;;;;;;5073717;28;20208;-65
2021/09/18 02:23:12;;;;;;;5.83;4.40;;;12.10;99.90;;;;;;5073557;28;20588;-65
2021/09/18 02:25:40;;;;;;;5.27;4.33;;;12.10;99.90;;;;;;5073403;28;20209;-65
2021/09/18 02:28:07;;;;;;;5.73;4.40;;;12.00;99.90;;;;;;5073283;28;20229;-64
2021/09/18 02:30:35;;;;;;;8.23;5.13;;;12.00;99.90;;;;;;5073279;28;20221;-63
2021/09/18 02:33:04;;;;;;;5.07;4.33;;;11.90;99.90;;;;;;5073505;28;20212;-65
2021/09/18 02:35:31;;;;;;;6.37;4.43;;;11.90;99.90;;;;;;5073096;28;20703;-65
2021/09/18 02:38:00;;;;;;;8.37;4.87;;;11.90;99.90;;;;;;5073115;28;20229;-66
2021/09/18 02:40:28;;;;;;;5.23;4.73;;;11.90;99.90;;;;;;5073319;28;20208;-65
2021/09/18 02:42:57;;;;;;;9.07;4.93;;;11.90;99.90;;;;;;5073732;28;20212;-64
2021/09/18 02:45:24;;;;;;;5.20;4.63;;;11.80;99.90;;;;;;5073427;28;20213;-64
2021/09/18 02:47:51;;;;;;;8.63;4.70;;;11.80;99.90;;;;;;5073358;28;20236;-64
2021/09/18 02:50:21;;;;;;;6.73;4.77;;;11.80;99.90;;;;;;5073266;28;20221;-67
2021/09/18 02:52:48;;;;;;;5.40;4.90;;;11.70;99.90;;;;;;5073257;28;20208;-64
2021/09/18 02:55:15;;;;;;;9.30;5.20;;;11.70;99.90;;;;;;5072892;28;20205;-64
2021/09/18 02:57:43;;;;;;;7.30;4.73;;;11.70;99.90;;;;;;5072689;28;20259;-65
2021/09/18 03:00:11;;;;;;;6.13;4.97;;;11.70;99.90;;;;;;5072734;28;20668;-64
2021/09/18 03:02:39;;;;;;;7.10;4.83;;;11.60;99.90;;;;;;5072898;28;20201;-66
2021/09/18 03:05:07;;;;;;;6.77;5.40;;;11.60;99.90;;;;;;5072813;28;20204;-64
2021/09/18 03:07:35;;;;;;;6.23;4.83;;;11.50;99.90;;;;;;5072708;28;20225;-64
2021/09/18 03:10:02;;;;;;;5.67;4.73;;;11.60;99.90;;;;;;5072410;28;20208;-64
2021/09/18 03:12:29;;;;;;;5.43;4.83;;;11.50;99.90;;;;;;5072795;28;20215;-64
2021/09/18 03:14:55;;;;;;;6.27;5.13;;;11.50;99.90;;;;;;5072671;28;20205;-64
2021/09/18 03:17:22;;;;;;;6.30;4.73;;;11.50;99.90;;;;;;5072651;28;20237;-63
2021/09/18 03:19:51;;;;;;;6.17;5.50;;;11.40;99.90;;;;;;5072384;28;20262;-64
2021/09/18 03:22:18;;;;;;;6.97;5.33;;;11.40;99.90;;;;;;5072256;28;20246;-64
2021/09/18 03:24:46;;;;;;;8.47;5.03;;;11.40;99.90;;;;;;5072045;28;20205;-65
2021/09/18 03:27:14;;;;;;;5.77;5.20;;;11.40;99.90;;;;;;5072445;28;20286;-64
2021/09/18 03:29:41;;;;;;;8.80;5.70;;;11.50;99.90;;;;;;5072258;28;20220;-66
2021/09/18 03:32:07;;;;;;;10.63;5.80;;;11.50;99.90;;;;;;5072257;28;20233;-63
2021/09/18 03:34:34;;;;;;;7.23;5.93;;;11.60;99.90;;;;;;5072086;28;20205;-64
2021/09/18 03:37:01;;;;;;;6.93;6.07;;;11.60;99.90;;;;;;5071907;28;20258;-64
2021/09/18 03:39:28;;;;;;;6.77;6.07;;;11.50;99.90;;;;;;5072351;28;20204;-64
2021/09/18 03:41:56;;;;;;;6.20;5.60;;;11.50;99.90;;;;;;5072103;28;20209;-66
2021/09/18 03:44:22;;;;;;;8.43;6.00;;;11.50;99.90;;;;;;5071855;28;20201;-66
2021/09/18 03:46:50;;;;;;;7.17;5.60;;;11.50;99.90;;;;;;5072005;28;20205;-65
2021/09/18 03:49:17;;;;;;;7.83;6.03;;;11.50;99.90;;;;;;5071775;28;20665;-67
2021/09/18 03:51:44;;;;;;;8.70;5.60;;;11.60;99.90;;;;;;5071852;28;20217;-64
2021/09/18 03:54:10;;;;;;;7.63;5.00;;;11.60;99.90;;;;;;5072100;28;20566;-63
2021/09/18 03:56:37;;;;;;;11.30;5.47;;;11.50;99.90;;;;;;5072039;28;20619;-66
2021/09/18 03:59:05;;;;;;;6.93;5.53;;;11.60;99.90;;;;;;5071725;28;20238;-63
2021/09/18 04:01:32;;;;;;;6.93;5.53;;;11.60;99.90;;;;;;5071700;28;20334;-63
2021/09/18 04:03:59;;;;;;;5.90;5.17;;;11.60;99.90;;;;;;5071489;28;20562;-64
2021/09/18 04:06:26;;;;;;;5.93;5.33;;;11.60;99.90;;;;;;5071441;28;20287;-64
2021/09/18 04:08:53;;;;;;;5.27;4.77;;;11.50;99.90;;;;;;5071535;28;20315;-63
2021/09/18 04:11:20;;;;;;;5.50;5.00;;;11.50;99.90;;;;;;5071522;28;20653;-66
2021/09/18 04:13:48;;;;;;;5.40;4.87;;;11.40;99.90;;;;;;5071644;28;20209;-64
2021/09/18 04:16:16;;;;;;;8.07;5.10;;;11.40;99.90;;;;;;5071384;28;20205;-63
2021/09/18 04:18:43;;;;;;;9.27;5.63;;;11.30;99.90;;;;;;5071165;28;20247;-64
2021/09/18 04:21:09;;;;;;;7.97;5.70;;;11.30;99.90;;;;;;5071661;28;20228;-64
2021/09/18 04:23:36;;;;;;;5.70;5.03;;;11.30;99.90;;;;;;5071252;28;20243;-64
2021/09/18 04:26:03;;;;;;;6.63;4.97;;;11.30;99.90;;;;;;5071329;28;20212;-64
2021/09/18 04:28:29;;;;;;;6.43;5.80;;;11.20;99.90;;;;;;5070784;28;20274;-63
2021/09/18 04:30:56;;;;;;;6.40;4.80;;;11.10;99.90;;;;;;5071160;28;20220;-63
2021/09/18 04:33:24;;;;;;;5.47;4.97;;;11.10;99.90;;;;;;5071090;28;20212;-70
2021/09/18 04:35:51;;;;;;;6.47;5.67;;;11.10;99.90;;;;;;5071211;28;20250;-66
2021/09/18 04:38:18;;;;;;;6.40;5.33;;;11.10;99.90;;;;;;5071100;28;20298;-64
2021/09/18 04:40:45;;;;;;;6.03;5.20;;;11.10;99.90;;;;;;5071142;28;20890;-65
2021/09/18 04:43:11;;;;;;;5.97;5.37;;;11.10;99.90;;;;;;5070921;28;20208;-65
2021/09/18 04:45:38;;;;;;;7.10;5.90;;;11.00;99.90;;;;;;5070749;28;20591;-65
2021/09/18 04:48:05;;;;;;;6.40;5.50;;;11.00;99.90;;;;;;5070997;28;20236;-65
2021/09/18 04:50:33;;;;;;;9.67;5.80;;;11.00;99.90;;;;;;5071065;28;20208;-65
2021/09/18 04:53:00;;;;;;;6.33;5.73;;;11.10;99.90;;;;;;5071084;28;20700;-66
2021/09/18 04:55:27;;;;;;;8.10;6.20;;;11.10;99.90;;;;;;5070950;28;20205;-65
2021/09/18 04:57:53;;;;;;;8.40;5.77;;;11.10;99.90;;;;;;5070665;28;20237;-65
2021/09/18 05:00:20;;;;;;;6.47;5.40;;;11.10;99.90;;;;;;5070828;28;20208;-65
2021/09/18 05:02:47;;;;;;;6.23;5.60;;;11.10;99.90;;;;;;5071028;28;20208;-65
2021/09/18 05:05:13;;;;;;;7.37;5.80;;;11.10;99.90;;;;;;5070777;28;20209;-65
2021/09/18 05:07:41;;;;;;;6.20;5.60;;;11.00;99.90;;;;;;5070666;28;20232;-66
2021/09/18 05:10:09;;;;;;;8.17;5.87;;;11.10;99.90;;;;;;5071051;28;20231;-65
2021/09/18 05:12:36;;;;;;;6.40;5.73;;;11.00;99.90;;;;;;5070924;28;20708;-65
2021/09/18 05:15:03;;;;;;;6.20;5.60;;;11.00;99.90;;;;;;5070858;28;20213;-66
2021/09/18 05:17:29;;;;;;;8.00;5.93;;;11.00;99.90;;;;;;5070879;28;20596;-65
2021/09/18 05:19:56;;;;;;;6.50;5.80;;;11.00;99.90;;;;;;5070573;28;20688;-65
2021/09/18 05:22:23;;;;;;;7.97;6.00;;;11.10;99.90;;;;;;5070608;28;20205;-65
2021/09/18 05:24:51;;;;;;;6.37;5.77;;;11.10;99.90;;;;;;5070569;28;20223;-65
2021/09/18 05:27:18;;;;;;;8.83;5.53;;;11.20;99.90;;;;;;5070539;28;20656;-65
2021/09/18 05:29:45;;;;;;;6.97;5.90;;;11.20;99.90;;;;;;5070642;28;20493;-65
2021/09/18 05:32:12;;;;;;;10.20;6.47;;;11.30;99.90;;;;;;5070627;28;20228;-66
2021/09/18 05:34:38;;;;;;;7.73;6.50;;;11.30;99.90;;;;;;5070572;28;20209;-65
2021/09/18 05:37:05;;;;;;;7.33;6.23;;;11.40;99.90;;;;;;5070507;28;20235;-65
2021/09/18 05:39:32;;;;;;;10.03;6.47;;;11.50;99.90;;;;;;5072107;28;20213;-65
2021/09/18 05:42:00;;;;;;;7.30;6.40;;;11.50;99.90;;;;;;5074316;28;20205;-66
2021/09/18 05:44:27;;;;;;;11.17;7.77;;;11.60;99.90;;;;;;5074199;28;20228;-66
2021/09/18 05:46:54;;;;;;;7.77;6.60;;;11.70;99.90;;;;;;5074190;28;20232;-66
2021/09/18 05:49:21;;;;;;;11.67;6.87;;;11.70;99.90;;;;;;5074077;28;20216;-65
2021/09/18 05:51:47;;;;;;;9.50;7.13;;;11.80;99.90;;;;;;5074046;28;20220;-65
2021/09/18 05:54:14;;;;;;;7.50;6.70;;;11.90;99.90;;;;;;5073930;28;20200;-66
2021/09/18 05:56:41;;;;;;;7.77;6.97;;;12.00;99.90;;;;;;5073782;28;20213;-66
2021/09/18 05:59:09;;;;;;;8.20;7.07;;;12.10;99.90;;;;;;5074078;28;20205;-66
2021/09/18 06:01:35;;;;;;;9.43;7.23;;;12.20;99.90;;;;;;5074060;28;20204;-66
2021/09/18 06:04:02;;;;;;;9.23;6.53;;;12.30;99.90;;;;;;5073831;28;20235;-65
2021/09/18 06:06:29;;;;;;;6.67;5.70;;;12.50;99.90;;;;;;5073875;28;20208;-66
2021/09/18 06:08:55;;;;;;;5.90;5.20;;;13.10;99.90;;;;;;5073643;28;20220;-66
2021/09/18 06:11:22;;;;;;;5.30;4.80;;;13.70;99.90;;;;;;5073511;28;20618;-66
2021/09/18 06:13:49;;;;;;;6.33;4.40;;;14.70;99.90;;;;;;5074042;28;20262;-65
2021/09/18 06:16:17;;;;;;;5.07;4.57;;;15.90;99.90;;;;;;5073926;28;20228;-61
2021/09/18 06:18:44;;;;;;;5.33;4.83;;;17.20;99.90;;;;;;5073806;28;20225;-60
2021/09/18 06:21:10;;;;;;;5.38;4.28;;;18.20;99.90;;;;;;5073993;28;20208;-59
2021/09/18 06:23:39;;;;;;;5.57;4.40;;;19.10;99.90;;;;;;5073748;28;20215;-59
2021/09/18 06:26:07;;;;;;;5.35;3.92;;;19.80;99.90;;;;;;5074079;28;20208;-59
2021/09/18 06:28:35;;;;;;;3.75;3.35;;;20.70;99.90;;;;;;5073763;28;20225;-60
2021/09/18 06:31:01;;;;;;;5.07;4.55;;;21.40;99.90;;;;;;5073834;28;20205;-59
2021/09/18 06:33:30;;;;;;;5.53;5.03;;;22.00;99.90;;;;;;5073289;28;20713;-58
2021/09/18 06:35:57;;;;;;;7.22;5.10;;;22.30;99.90;;;;;;5074031;28;20258;-60
2021/09/18 06:38:24;;;;;;;6.72;4.72;;;22.80;99.90;;;;;;5073378;28;20221;-60
2021/09/18 06:40:50;;;;;;;4.50;4.10;;;23.20;99.90;;;;;;5073764;28;20571;-60
2021/09/18 06:43:17;;;;;;;3.55;3.25;;;23.60;99.90;;;;;;5073823;28;20208;-60
2021/09/18 06:45:44;;;;;;;5.18;3.28;;;23.90;99.90;;;;;;5073488;28;20617;-60
2021/09/18 06:48:11;;;;;;;4.65;4.03;;;24.10;99.90;;;;;;5073043;28;20743;-60
2021/09/18 06:50:39;;;;;;;7.72;5.00;;;24.40;99.90;;;;;;5073425;28;20228;-60
2021/09/18 06:53:06;;;;;;;5.80;4.20;;;24.70;99.90;;;;;;5072987;28;20859;-60
2021/09/18 06:55:33;;;;;;;4.32;3.30;;;24.90;99.90;;;;;;5073122;28;20254;-60
2021/09/18 06:58:00;;;;;;;4.55;3.40;;;25.00;99.90;;;;;;5072951;28;20229;-60
2021/09/18 07:00:28;;;;;;;3.50;3.20;;;25.10;99.90;;;;;;5073034;28;20282;-59
2021/09/18 07:02:54;;;;;;;3.85;3.45;;;25.00;99.90;;;;;;5072751;28;20201;-60
2021/09/18 07:05:21;;;;;;;3.80;3.35;;;24.90;99.90;;;;;;5073129;28;20616;-60
2021/09/18 07:07:50;;;;;;;6.60;3.80;;;25.40;99.90;;;;;;5072695;28;20656;-59
2021/09/18 07:10:17;;;;;;;5.93;3.60;;;25.80;99.90;;;;;;5072914;28;20583;-58
2021/09/18 07:12:44;;;;;;;3.83;3.38;;;26.40;99.00;;;;;;5073438;28;20282;-63
2021/09/18 07:15:11;;;;;;;3.30;3.00;;;26.80;97.70;;;;;;5072765;28;20209;-63
2021/09/18 07:17:38;;;;;;;3.45;2.95;;;27.20;96.20;;;;;;5072398;28;20578;-64
2021/09/18 07:20:06;;;;;;;3.60;3.20;;;27.20;95.40;;;;;;5072310;28;20263;-63
2021/09/18 07:22:33;;;;;;;5.97;3.10;;;27.30;95.40;;;;;;5072599;28;20209;-64
2021/09/18 07:25:02;;;;;;;3.53;3.08;;;27.50;94.50;;;;;;5072492;28;20214;-63
2021/09/18 07:27:28;;;;;;;3.47;3.17;;;27.70;93.90;;;;;;5073393;28;20239;-64
2021/09/18 07:29:57;;;;;;;3.30;3.00;;;27.90;93.30;;;;;;5072836;28;20204;-63
2021/09/18 07:32:24;;;;;;;3.50;3.13;;;28.10;92.70;;;;;;5072958;28;20312;-62
2021/09/18 07:34:51;;;;;;;3.47;3.17;;;28.40;92.20;;;;;;5076131;28;20330;-60
2021/09/18 07:37:18;;;;;;;4.07;3.40;;;28.60;91.20;;;;;;5072765;28;20228;-62
2021/09/18 07:39:45;;;;;;;4.53;3.22;;;28.80;90.30;;;;;;5072075;28;20208;-62
2021/09/18 07:42:13;;;;;;;3.08;2.80;;;28.80;90.00;;;;;;5072377;28;20232;-62
2021/09/18 07:44:40;;;;;;;4.15;2.90;;;28.70;89.60;;;;;;5071850;28;20754;-62
2021/09/18 07:47:07;;;;;;;4.45;3.45;;;28.40;90.20;;;;;;5071853;28;20248;-61
2021/09/18 07:49:34;;;;;;;4.22;3.00;;;28.20;90.50;;;;;;5071875;28;20208;-61
2021/09/18 07:52:00;;;;;;;3.75;3.40;;;27.60;91.30;;;;;;5071956;28;20232;-62
2021/09/18 07:54:29;;;;;;;8.43;3.50;;;26.70;92.20;;;;;;5071880;28;20586;-60
2021/09/18 07:56:56;;;;;;;3.83;3.42;;;25.70;93.40;;;;;;5071624;28;20726;-61
2021/09/18 07:59:24;;;;;;;5.03;3.50;;;24.80;95.30;;;;;;5071715;28;20611;-62
2021/09/18 08:01:50;;;;;;;5.00;4.13;;;23.70;96.70;;;;;;5071046;28;20209;-62
2021/09/18 08:04:17;;;;;;;4.85;4.13;;;22.90;98.50;;;;;;5072094;28;20209;-62
2021/09/18 08:06:44;;;;;;;3.70;3.40;;;22.20;99.90;;;;;;5072121;28;20208;-61
2021/09/18 08:09:10;;;;;;;4.35;3.95;;;21.60;99.90;;;;;;5071946;28;20209;-61
2021/09/18 08:11:37;;;;;;;4.18;3.78;;;21.20;99.90;;;;;;5071576;28;20205;-62
2021/09/18 08:14:04;;;;;;;7.07;4.47;;;20.80;99.90;;;;;;5071383;28;20204;-60
2021/09/18 08:16:32;;;;;;;7.72;4.75;;;20.50;99.90;;;;;;5071790;28;20205;-62
2021/09/18 08:18:59;;;;;;;5.25;4.22;;;20.10;99.90;;;;;;5071869;28;20239;-63
2021/09/18 08:21:26;;;;;;;5.68;4.70;;;19.80;99.90;;;;;;5071980;28;20661;-63
2021/09/18 08:23:52;;;;;;;5.53;4.63;;;19.60;99.90;;;;;;5071243;28;20209;-64
2021/09/18 08:26:19;;;;;;;4.30;3.90;;;19.50;99.90;;;;;;5071765;28;20216;-64
2021/09/18 08:28:46;;;;;;;7.05;4.18;;;19.40;99.90;;;;;;5071596;28;20248;-64
2021/09/18 08:31:13;;;;;;;5.43;4.75;;;19.30;99.90;;;;;;5071930;28;20204;-63
2021/09/18 08:33:41;;;;;;;4.63;3.95;;;19.20;99.90;;;;;;5071285;28;20228;-64
2021/09/18 08:36:07;;;;;;;4.93;4.28;;;19.10;99.90;;;;;;5071598;28;20288;-64
2021/09/18 08:38:34;;;;;;;5.47;4.90;;;19.10;99.90;;;;;;5071411;28;20725;-63
2021/09/18 08:41:01;;;;;;;7.55;4.55;;;19.10;99.90;;;;;;5071227;28;20591;-63
2021/09/18 08:43:28;;;;;;;5.07;4.57;;;18.90;99.90;;;;;;5070690;28;20200;-63
2021/09/18 08:45:54;;;;;;;5.70;4.50;;;18.80;99.90;;;;;;5071256;28;20227;-64
2021/09/18 08:48:24;;;;;;;5.22;4.72;;;18.90;99.90;;;;;;5071065;28;20232;-64
2021/09/18 08:50:53;;;;;;;4.82;4.38;;;19.10;99.90;;;;;;5071070;28;20231;-64
2021/09/18 08:53:20;;;;;;;5.53;4.80;;;19.10;99.90;;;;;;5071196;28;20279;-64
2021/09/18 08:55:52;;;;;;;5.13;4.65;;;19.30;99.90;;;;;;5071099;28;20572;-64
2021/09/18 08:58:19;;;;;;;6.03;4.70;;;19.40;99.90;;;;;;5070986;28;20263;-64
2021/09/18 09:00:51;;;;;;;4.75;4.35;;;19.50;99.90;;;;;;5071273;28;20677;-65
2021/09/18 09:03:26;;;;;;;6.10;4.70;;;19.60;99.90;;;;;;5071107;28;20719;-64
2021/09/18 09:06:01;;;;;;;5.97;4.93;;;19.70;99.90;;;;;;5070970;28;20204;-65
2021/09/18 09:08:27;;;;;;;5.28;4.75;;;19.80;99.90;;;;;;5071099;28;20735;-64
2021/09/18 09:10:54;;;;;;;8.50;4.70;;;19.90;99.90;;;;;;5070914;28;20231;-66
2021/09/18 09:13:23;;;;;;;5.72;4.65;;;20.10;99.90;;;;;;5072004;28;20244;-65
2021/09/18 09:15:52;;;;;;;6.57;5.80;;;20.20;99.90;;;;;;5075196;28;20238;-64
2021/09/18 09:18:21;;;;;;;4.53;4.13;;;20.20;99.90;;;;;;5075105;28;20712;-65
2021/09/18 09:20:49;;;;;;;6.32;4.88;;;20.20;99.90;;;;;;5075076;28;20208;-63
2021/09/18 09:23:19;;;;;;;5.70;4.40;;;20.30;99.90;;;;;;5075158;28;20283;-64
2021/09/18 09:25:50;;;;;;;6.53;4.70;;;20.30;99.90;;;;;;5075539;28;20617;-63
2021/09/18 09:28:30;;;;;;;4.85;4.38;;;20.40;99.90;;;;;;5074972;28;20376;-63
2021/09/18 09:31:09;;;;;;;5.05;4.55;;;20.40;99.90;;;;;;5074954;28;20204;-64
2021/09/18 09:33:36;;;;;;;4.70;4.30;;;20.50;99.90;;;;;;5075197;28;20220;-64
2021/09/18 09:36:14;;;;;;;5.70;5.20;;;20.50;99.90;;;;;;5075203;28;20216;-64
2021/09/18 09:38:51;;;;;;;5.38;4.88;;;20.70;99.90;;;;;;5075269;28;20790;-64
2021/09/18 09:41:30;;;;;;;5.03;4.53;;;20.80;99.90;;;;;;5074985;28;20565;-64
2021/09/18 09:43:57;;;;;;;8.25;5.22;;;20.80;99.90;;;;;;5074799;28;20193;-64
2021/09/18 09:46:24;;;;;;;5.30;4.45;;;20.90;99.90;;;;;;5074444;28;20686;-64
2021/09/18 09:49:06;;;;;;;7.15;5.25;;;21.00;99.90;;;;;;5075343;28;20631;-64
2021/09/18 09:51:33;;;;;;;5.35;4.82;;;21.00;99.90;;;;;;5074498;28;20205;-64
2021/09/18 09:57:13;;;;;;;6.28;5.60;;;20.90;99.90;;;;;;5088470;28;20545;-64
2021/09/18 09:59:41;;;;;;;5.55;4.20;;;21.00;99.90;;;;;;5088436;28;20575;-64
2021/09/18 10:02:10;;;;;;;4.20;3.72;;;20.90;99.90;;;;;;5088579;28;20704;-64
2021/09/18 10:04:37;;;;;;;3.97;3.58;;;20.90;99.90;;;;;;5088182;28;20231;-64
2021/09/18 10:07:04;;;;;;;4.90;4.40;;;20.90;99.90;;;;;;5089405;28;20288;-64
2021/09/18 10:09:32;;;;;;;3.42;3.13;;;21.00;99.90;;;;;;5088588;28;20215;-64
2021/09/18 10:11:59;;;;;;;3.75;3.45;;;21.10;99.90;;;;;;5088553;28;20208;-65
2021/09/18 10:14:28;;;;;;;9.00;3.58;;;21.20;99.90;;;;;;5087849;28;20659;-65
2021/09/18 10:16:57;;;;;;;4.25;3.42;;;21.20;99.90;;;;;;5088077;28;20212;-65
2021/09/18 10:19:52;;;;;;;4.07;3.30;;;21.20;99.90;;;;;;5088173;28;20491;-64
2021/09/18 10:25:07;;;;;;;3.22;2.70;;;21.10;99.90;;;;;;5088297;28;20202;-65
2021/09/18 10:27:33;;;;;;;3.63;3.00;;;21.40;99.90;;;;;;5088185;28;20220;-65
2021/09/18 10:30:01;;;;;;;4.10;3.70;;;21.50;99.90;;;;;;5088368;28;20204;-65
2021/09/18 10:32:28;;;;;;;6.25;3.80;;;21.70;99.90;;;;;;5088330;28;20209;-64
2021/09/18 10:35:12;;;;;;;4.07;3.40;;;21.80;99.90;;;;;;5087943;28;20284;-65
2021/09/18 10:37:40;;;;;;;3.42;2.97;;;21.70;99.90;;;;;;5087853;28;20235;-65
2021/09/18 10:40:09;;;;;;;4.38;3.90;;;21.80;99.90;;;;;;5088127;28;20667;-65
2021/09/18 10:42:39;;;;;;;3.63;3.22;;;21.80;99.90;;;;;;5088516;28;20205;-64
2021/09/18 10:45:09;;;;;;;3.90;3.38;;;21.80;99.90;;;;;;5088258;28;20205;-65
2021/09/18 10:47:38;;;;;;;6.38;3.50;;;21.90;99.90;;;;;;5088243;28;20262;-64
2021/09/18 10:50:27;;;;;;;4.00;3.42;;;22.00;99.90;;;;;;5088041;28;20212;-65
2021/09/18 10:53:01;;;;;;;4.45;3.42;;;22.20;99.90;;;;;;5087511;28;20208;-64
2021/09/18 10:55:30;;;;;;;4.20;3.60;;;22.20;99.90;;;;;;5087202;28;20219;-65
2021/09/18 10:58:08;;;;;;;5.18;3.58;;;22.30;99.90;;;;;;5087574;28;20228;-64
2021/09/18 11:00:43;;;;;;;4.03;2.97;;;22.30;99.90;;;;;;5087762;28;20204;-64
2021/09/18 11:03:10;;;;;;;4.38;3.97;;;22.20;99.90;;;;;;5087981;28;20245;-64
2021/09/18 11:05:45;;;;;;;4.30;3.83;;;22.30;99.90;;;;;;5087523;28;20669;-64
2021/09/18 11:08:30;;;;;;;4.88;4.00;;;22.30;99.90;;;;;;5074333;28;20224;-64
2021/09/18 11:10:59;;;;;;;5.43;3.83;;;22.40;99.90;;;;;;5074450;28;20230;-64
2021/09/18 11:13:32;;;;;;;3.78;3.40;;;22.60;99.90;;;;;;5073879;28;20205;-65
2021/09/18 11:16:04;;;;;;;4.35;3.72;;;22.70;99.90;;;;;;5074206;28;20260;-65
2021/09/18 11:18:35;;;;;;;5.65;3.45;;;22.80;99.90;;;;;;5074015;28;20225;-65
2021/09/18 11:21:06;;;;;;;4.97;3.55;;;23.00;99.90;;;;;;5073609;28;20262;-64
2021/09/18 11:23:35;;;;;;;4.45;3.45;;;23.20;99.90;;;;;;5073351;28;20236;-64
2021/09/18 11:26:01;;;;;;;4.07;3.67;;;23.40;99.90;;;;;;5073285;28;20212;-64
2021/09/18 11:28:34;;;;;;;3.38;2.88;;;23.40;99.90;;;;;;5073144;28;20401;-64
2021/09/18 11:31:09;;;;;;;3.85;3.55;;;23.50;99.90;;;;;;5073229;28;20296;-64
2021/09/18 11:33:37;;;;;;;4.05;3.17;;;23.70;99.90;;;;;;5072979;28;20680;-64
2021/09/18 11:36:04;;;;;;;3.85;2.95;;;23.80;99.90;;;;;;5073022;28;20228;-64
2021/09/18 11:38:33;;;;;;;2.90;2.60;;;23.70;99.90;;;;;;5072932;28;20233;-64
2021/09/18 11:41:05;;;;;;;3.50;2.97;;;23.70;99.90;;;;;;5072986;28;20563;-64
2021/09/18 11:43:32;;;;;;;2.70;2.50;;;23.50;99.90;;;;;;5072698;28;20208;-64
2021/09/18 11:46:00;;;;;;;3.13;2.83;;;23.40;99.90;;;;;;5073030;28;20251;-64
2021/09/18 11:48:29;;;;;;;3.33;2.85;;;23.40;99.90;;;;;;5072690;28;20672;-64
2021/09/18 11:50:56;;;;;;;2.58;2.38;;;23.50;99.90;;;;;;5072910;28;20208;-64
2021/09/18 11:53:23;;;;;;;2.92;2.63;;;23.50;99.90;;;;;;5073032;28;20227;-65
2021/09/18 11:55:51;;;;;;;2.90;2.70;;;23.50;99.90;;;;;;5072573;28;20595;-65
2021/09/18 11:58:20;;;;;;;3.15;2.75;;;23.60;99.90;;;;;;5072910;28;20228;-65
2021/09/18 12:00:49;;;;;;;2.70;2.50;;;23.80;99.90;;;;;;5072850;28;20258;-65
2021/09/18 12:03:22;;;;;;;3.63;2.58;;;24.00;99.90;;;;;;5072685;28;20722;-65
2021/09/18 12:05:55;;;;;;;3.10;2.67;;;24.20;99.90;;;;;;5074124;28;20223;-65
2021/09/18 12:08:23;;;;;;;3.95;2.88;;;24.40;99.90;;;;;;5072641;28;20770;-64
2021/09/18 12:10:50;;;;;;;5.22;2.90;;;24.50;99.20;;;;;;5072563;28;20204;-63
2021/09/18 12:13:22;;;;;;;2.65;2.45;;;24.40;99.50;;;;;;5072449;28;20218;-64
2021/09/18 12:15:50;;;;;;;2.67;2.47;;;24.40;98.90;;;;;;5072217;28;20225;-64
2021/09/18 12:18:29;;;;;;;2.80;2.30;;;24.10;99.20;;;;;;5071410;28;20221;-64
2021/09/18 12:20:58;;;;;;;2.72;2.40;;;23.90;99.50;;;;;;5072231;28;20212;-64
2021/09/18 12:23:26;;;;;;;3.28;2.58;;;23.90;99.10;;;;;;5071842;28;20255;-63
2021/09/18 12:25:58;;;;;;;2.97;2.67;;;24.00;98.20;;;;;;5072151;28;20208;-64
2021/09/18 12:28:25;;;;;;;4.13;3.40;;;24.40;97.70;;;;;;5071741;28;20610;-64
2021/09/18 12:30:52;;;;;;;3.50;3.20;;;24.70;99.90;;;;;;5072132;28;20208;-64
2021/09/18 12:33:28;;;;;;;3.53;3.10;;;24.90;99.90;;;;;;5072110;28;20220;-63
2021/09/18 12:36:05;;;;;;;3.42;3.13;;;25.20;99.90;;;;;;5071858;28;20251;-65
2021/09/18 12:38:32;;;;;;;3.50;3.20;;;25.40;99.90;;;;;;5071876;28;20225;-64
2021/09/18 12:41:01;;;;;;;3.88;2.92;;;25.60;99.90;;;;;;5071627;28;20212;-65
2021/09/18 12:43:28;;;;;;;4.30;2.90;;;25.70;99.90;;;;;;5071794;28;20205;-63
2021/09/18 12:46:05;;;;;;;4.75;3.08;;;25.60;99.90;;;;;;5071800;28;20594;-64
2021/09/18 12:48:32;;;;;;;4.30;2.53;;;25.40;99.90;;;;;;5071463;28;20231;-64
2021/09/18 12:51:02;;;;;;;4.07;2.90;;;25.30;99.90;;;;;;5071591;28;20208;-64
2021/09/18 12:53:32;;;;;;;2.88;2.67;;;25.20;99.90;;;;;;5071433;28;20741;-65
2021/09/18 12:56:18;;;;;;;4.15;3.22;;;25.20;99.90;;;;;;5071498;28;20220;-64